createdAt,value
2024-02-19T00:04:38.856Z,7.2
2024-02-19T00:10:23.008Z,7.2
2024-02-19T00:16:07.275Z,7.2
2024-02-19T00:21:51.176Z,7.2
2024-02-19T00:27:35.165Z,7.6
2024-02-19T00:33:20.177Z,7.4
2024-02-19T00:39:03.860Z,7.3
2024-02-19T00:44:50.588Z,7.3
2024-02-19T00:50:34.367Z,7.4
2024-02-19T00:56:18.100Z,7.5
2024-02-19T01:02:02.340Z,7
2024-02-19T01:07:46.071Z,7
2024-02-19T01:13:29.734Z,7.2
2024-02-19T01:19:14.008Z,6.5
2024-02-19T01:24:58.194Z,7
2024-02-19T01:30:41.922Z,6.8
2024-02-19T01:36:25.631Z,7
2024-02-19T01:42:09.329Z,7.4
2024-02-19T01:47:54.236Z,6.7
2024-02-19T01:53:38.435Z,6.7
2024-02-19T01:59:24.061Z,6.4
2024-02-19T02:05:08.687Z,7.5
2024-02-19T02:10:52.604Z,6.2
2024-02-19T02:16:36.575Z,6.7
2024-02-19T02:22:20.461Z,6.9
2024-02-19T02:28:04.430Z,6.6
2024-02-19T02:33:49.018Z,6.5
2024-02-19T02:39:33.874Z,6.2
2024-02-19T02:45:18.108Z,6.4
2024-02-19T02:51:01.861Z,6.1
2024-02-19T02:56:45.710Z,5.6
2024-02-19T03:02:30.467Z,6
2024-02-19T03:08:15.185Z,5.9
2024-02-19T03:13:58.897Z,6.4
2024-02-19T03:19:42.749Z,6.1
2024-02-19T03:25:26.870Z,6.8
2024-02-19T03:31:10.781Z,6
2024-02-19T03:36:55.735Z,6.1
2024-02-19T03:42:39.766Z,6
2024-02-19T03:48:23.963Z,6.1
2024-02-19T03:54:07.676Z,6.5
2024-02-19T03:59:51.974Z,6.1
2024-02-19T04:05:35.918Z,6.6
2024-02-19T04:11:21.072Z,6.2
2024-02-19T04:17:08.312Z,6.6
2024-02-19T04:22:53.131Z,7.1
2024-02-19T04:28:36.651Z,7.6
2024-02-19T04:34:21.071Z,7.7
2024-02-19T04:40:05.243Z,7.6
2024-02-19T04:45:49.325Z,8.2
2024-02-19T04:51:33.024Z,8.6
2024-02-19T04:57:16.509Z,8.6
2024-02-19T05:03:00.183Z,8.8
2024-02-19T05:08:43.877Z,8.8
2024-02-19T05:14:28.525Z,8.9
2024-02-19T05:20:13.202Z,9.3
2024-02-19T05:25:56.931Z,9.7
2024-02-19T05:31:41.290Z,9.5
2024-02-19T05:37:25.265Z,9.3
2024-02-19T05:43:09.565Z,9
2024-02-19T05:48:54.054Z,9.7
2024-02-19T05:54:38.225Z,18.9
2024-02-19T06:00:22.602Z,16.5
2024-02-19T06:06:06.799Z,14.5
2024-02-19T06:11:50.565Z,14.5
2024-02-19T06:17:35.024Z,12.8
2024-02-19T06:23:18.797Z,12.7
2024-02-19T06:29:02.543Z,12.9
2024-02-19T06:34:48.228Z,12.4
2024-02-19T06:40:32.525Z,11.9
2024-02-19T06:46:18.730Z,12.1
2024-02-19T06:52:03.150Z,12
2024-02-19T06:57:47.427Z,11.6
2024-02-19T07:03:31.260Z,11.7
2024-02-19T07:09:15.358Z,11.7
2024-02-19T07:14:59.814Z,10.7
2024-02-19T07:20:43.667Z,10.3
2024-02-19T07:26:27.695Z,10.2
2024-02-19T07:32:11.771Z,11.5
2024-02-19T07:37:57.618Z,10.2
2024-02-19T07:43:42.725Z,10
2024-02-19T07:49:26.717Z,10
2024-02-19T07:55:13.260Z,9.2
2024-02-19T08:00:57.335Z,9.4
2024-02-19T08:06:43.330Z,8.7
2024-02-19T08:12:27.988Z,9.1
2024-02-19T08:18:12.606Z,8.1
2024-02-19T08:23:57.710Z,8.2
2024-02-19T08:29:42.533Z,7.8
2024-02-19T08:35:26.836Z,7.5
2024-02-19T08:41:10.796Z,7.5
2024-02-19T08:46:54.450Z,6.5
2024-02-19T08:52:38.251Z,6.6
2024-02-19T08:58:22.232Z,6.8
2024-02-19T09:04:06.554Z,7.2
2024-02-19T09:09:50.716Z,6.7
2024-02-19T09:15:34.452Z,6.9
2024-02-19T09:21:20.744Z,6.6
2024-02-19T09:27:04.873Z,6.7
2024-02-19T09:32:50.969Z,6.5
2024-02-19T09:38:34.655Z,6.2
2024-02-19T09:44:18.643Z,6.5
2024-02-19T09:50:04.534Z,6.3
2024-02-19T09:55:48.838Z,6.3
2024-02-19T10:01:33.025Z,5.9
2024-02-19T10:07:19.051Z,6.3
2024-02-19T10:13:03.603Z,5.8
2024-02-19T10:18:48.914Z,6.3
2024-02-19T10:24:33.170Z,6.2
2024-02-19T10:30:18.014Z,6.3
2024-02-19T10:36:01.913Z,6.6
2024-02-19T10:41:46.875Z,6.7
2024-02-19T10:47:30.792Z,6.5
2024-02-19T10:53:14.560Z,6.4
2024-02-19T10:59:02.181Z,6
2024-02-19T11:04:51.743Z,6.1
2024-02-19T11:10:45.764Z,6.5
2024-02-19T11:16:30.318Z,6.7
2024-02-19T11:22:14.894Z,6.2
2024-02-19T11:27:59.100Z,6.4
2024-02-19T11:33:43.232Z,6
2024-02-19T11:39:27.000Z,5.8
2024-02-19T11:45:11.847Z,5
2024-02-19T11:50:56.321Z,5.5
2024-02-19T11:56:47.620Z,5
2024-02-19T12:02:31.481Z,5
2024-02-19T12:08:16.418Z,4.4
2024-02-19T12:14:00.241Z,3.9
2024-02-19T12:19:44.025Z,5.1
2024-02-19T12:25:28.645Z,4
2024-02-19T12:31:12.495Z,4
2024-02-19T12:36:56.627Z,3.9
2024-02-19T12:42:40.494Z,3.3
2024-02-19T12:48:24.518Z,4
2024-02-19T12:54:08.590Z,3.8
2024-02-19T12:59:53.458Z,3.5
2024-02-19T13:05:37.381Z,2.9
2024-02-19T13:11:21.332Z,3.1
2024-02-19T13:17:16.704Z,2.8
2024-02-19T13:23:07.419Z,2.6
2024-02-19T13:28:51.216Z,2.7
2024-02-19T13:34:37.087Z,2.8
2024-02-19T13:40:23.057Z,2.6
2024-02-19T13:46:08.647Z,2.4
2024-02-19T13:51:53.195Z,2.4
2024-02-19T13:57:37.082Z,2.4
2024-02-19T14:03:21.063Z,2.2
2024-02-19T14:09:05.002Z,2.2
2024-02-19T14:14:48.700Z,2.2
2024-02-19T14:20:35.245Z,2.2
2024-02-19T14:26:21.455Z,1.8
2024-02-19T14:32:05.344Z,2
2024-02-19T14:37:49.213Z,2.2
2024-02-19T14:43:33.133Z,2.1
2024-02-19T14:49:17.482Z,2.1
2024-02-19T14:55:01.586Z,2.1
2024-02-19T15:00:45.625Z,2.2
2024-02-19T15:06:29.779Z,2.3
2024-02-19T15:12:14.177Z,2.3
2024-02-19T15:18:01.452Z,2.4
2024-02-19T15:23:45.403Z,2.1
2024-02-19T15:29:31.223Z,2.7
2024-02-19T15:35:15.726Z,2.2
2024-02-19T15:40:59.730Z,2.3
2024-02-19T15:46:43.555Z,2.4
2024-02-19T15:52:29.486Z,2.5
2024-02-19T15:58:14.091Z,2.4
2024-02-19T16:03:57.957Z,2.7
2024-02-19T16:09:42.066Z,2.6
2024-02-19T16:15:25.659Z,2.6
2024-02-19T16:21:09.319Z,2.7
2024-02-19T16:26:53.268Z,3
2024-02-19T16:32:39.133Z,2.5
2024-02-19T16:38:23.068Z,2.6
2024-02-19T16:44:06.848Z,2.6
2024-02-19T16:49:50.969Z,2.5
2024-02-19T16:55:34.932Z,2.6
2024-02-19T17:01:19.497Z,2.2
2024-02-19T17:07:09.089Z,2.5
2024-02-19T17:12:54.441Z,2.7
2024-02-19T17:18:38.713Z,2.5
2024-02-19T17:24:23.892Z,2.6
2024-02-19T17:30:08.125Z,2.7
2024-02-19T17:35:51.965Z,2.9
2024-02-19T17:41:35.814Z,2.8
2024-02-19T17:47:19.623Z,3.3
2024-02-19T17:53:04.517Z,2.9
2024-02-19T17:58:48.108Z,3.3
2024-02-19T18:04:31.912Z,3.9
2024-02-19T18:10:16.273Z,3.5
2024-02-19T18:16:00.178Z,4.1
2024-02-19T18:21:47.143Z,4.2
2024-02-19T18:27:30.926Z,4.1
2024-02-19T18:33:14.677Z,4.1
2024-02-19T18:38:58.479Z,4.5
2024-02-19T18:44:42.097Z,4.7
2024-02-19T18:50:25.750Z,4.7
2024-02-19T18:56:09.603Z,4.7
2024-02-19T19:01:53.577Z,4.7
2024-02-19T19:07:37.773Z,5.1
2024-02-19T19:13:23.039Z,4.9
2024-02-19T19:19:07.422Z,4.9
2024-02-19T19:24:51.310Z,5.3
2024-02-19T19:30:35.199Z,5.1
2024-02-19T19:36:18.904Z,5.1
2024-02-19T19:42:05.771Z,5.2
2024-02-19T19:47:49.591Z,5.2
2024-02-19T19:53:34.407Z,5
2024-02-19T19:59:18.132Z,5.2
2024-02-19T20:05:02.618Z,4.9
2024-02-19T20:10:46.860Z,5.2
2024-02-19T20:16:31.316Z,5.3
2024-02-19T20:22:15.414Z,5.1
2024-02-19T20:27:59.319Z,5.1
2024-02-19T20:33:43.249Z,5
2024-02-19T20:39:27.240Z,5.1
2024-02-19T20:45:14.101Z,4.8
2024-02-19T20:50:59.066Z,4.8
2024-02-19T20:56:43.380Z,5.3
2024-02-19T21:02:27.214Z,5.2
2024-02-19T21:08:13.670Z,4.4
2024-02-19T21:13:57.542Z,4.7
2024-02-19T21:19:41.654Z,4.6
2024-02-19T21:25:25.584Z,4.5
2024-02-19T21:31:09.560Z,5.1
2024-02-19T21:36:53.525Z,4.8
2024-02-19T21:42:40.702Z,5.4
2024-02-19T21:48:24.592Z,5.3
2024-02-19T21:54:08.880Z,5.8
2024-02-19T21:59:52.655Z,5.7
2024-02-19T22:05:36.688Z,6.8
2024-02-19T22:11:20.931Z,6.4
2024-02-19T22:17:05.060Z,6.4
2024-02-19T22:22:48.952Z,6.7
2024-02-19T22:28:33.139Z,7
2024-02-19T22:34:17.534Z,6.7
2024-02-19T22:40:01.445Z,7.1
2024-02-19T22:45:45.403Z,7.7
2024-02-19T22:51:29.408Z,7.8
2024-02-19T22:57:13.051Z,7
2024-02-19T23:02:58.075Z,8
2024-02-19T23:08:41.927Z,8.1
2024-02-19T23:14:25.591Z,8.1
2024-02-19T23:20:10.192Z,8.6
2024-02-19T23:25:55.652Z,8.9
2024-02-19T23:31:40.015Z,8.2
2024-02-19T23:37:24.173Z,9
2024-02-19T23:43:08.387Z,8.6
2024-02-19T23:48:52.609Z,9.1
2024-02-19T23:54:36.599Z,9.3
